KLYH/LYH METAR and TAF weather

Enter ICAO airport designator
Station Type Date Time Source
KLYH METAR 2021/02/27 02:54 UTC NOAA

KLYH 270254Z 02007KT 3SM -RA BR BKN004 OVC009 02/01 A3033 RMK AO2 SLP275 P0006 60011 T00220006 55005


Station Type Date Time Source
KLYH Decoded METAR 2021/02/27 02:54 UTC NOAA

LYNCHBURG REGIONAL AIRPORT, VA, United States (KLYH) 37-19N 079-12W 295M
Feb 26, 2021 - 09:54 PM EST / 2021.02.27 0254 UTC
Wind: from the NNE (020 degrees) at 8 MPH (7 KT):0
Visibility: 3 mile(s):0
Sky conditions: overcast
Weather: light rain; mist
Precipitation last hour: 0.06 inches
Temperature: 36.0 F (2.2 C)
Dew Point: 33.1 F (0.6 C)
Relative Humidity: 89%
Pressure (altimeter): 30.33 in. Hg (1027 hPa)
Pressure tendency: 0.01 inches (0.5 hPa) lower than three hours ago
ob: KLYH 270254Z 02007KT 3SM -RA BR BKN004 OVC009 02/01 A3033 RMK AO2 SLP275 P0006 60011 T00220006 55005
cycle: 3

Station Type Date Time Source
KLYH TAF 2021/02/27 01:33 UTC NOAA

TAF
AMD KLYH 270031Z 2701/2724 05009KT 6SM -RA BR OVC007
FM270400 05005KT 4SM -RADZ OVC006
TEMPO 2707/2709 2SM -DZRA OVC003
FM271500 22006KT 6SM -RA BR OVC004
FM271900 23008KT P6SM OVC020
FM272100 22006KT P6SM SCT030 BKN080

Example: see airport list